sensor_id;sensor_type;location;lat;lon;timestamp;P1;durP1;ratioP1;P2;durP2;ratioP2
26588;SDS011;14235;48.532;8.722;2022-12-29T00:00:04;5.72;;;2.10;;
26588;SDS011;14235;48.532;8.722;2022-12-29T00:02:31;9.57;;;2.53;;
26588;SDS011;14235;48.532;8.722;2022-12-29T00:04:56;2.20;;;2.00;;
26588;SDS011;14235;48.532;8.722;2022-12-29T00:07:22;2.88;;;1.88;;
26588;SDS011;14235;48.532;8.722;2022-12-29T00:09:48;3.45;;;1.80;;
26588;SDS011;14235;48.532;8.722;2022-12-29T00:12:13;2.05;;;1.85;;
26588;SDS011;14235;48.532;8.722;2022-12-29T00:14:39;2.10;;;1.90;;
26588;SDS011;14235;48.532;8.722;2022-12-29T00:17:23;2.65;;;1.60;;
26588;SDS011;14235;48.532;8.722;2022-12-29T00:19:49;2.75;;;1.85;;
26588;SDS011;14235;48.532;8.722;2022-12-29T00:22:33;1.75;;;1.65;;
26588;SDS011;14235;48.532;8.722;2022-12-29T00:25:17;1.77;;;1.67;;
26588;SDS011;14235;48.532;8.722;2022-12-29T00:28:01;2.47;;;1.77;;
26588;SDS011;14235;48.532;8.722;2022-12-29T00:30:45;2.15;;;2.03;;
26588;SDS011;14235;48.532;8.722;2022-12-29T00:33:30;3.97;;;2.60;;
26588;SDS011;14235;48.532;8.722;2022-12-29T00:36:28;2.90;;;2.70;;
26588;SDS011;14235;48.532;8.722;2022-12-29T00:39:02;3.67;;;2.55;;
26588;SDS011;14235;48.532;8.722;2022-12-29T00:41:51;3.03;;;2.13;;
26588;SDS011;14235;48.532;8.722;2022-12-29T00:44:35;2.35;;;2.05;;
26588;SDS011;14235;48.532;8.722;2022-12-29T00:47:00;2.70;;;2.20;;
26588;SDS011;14235;48.532;8.722;2022-12-29T00:49:29;2.47;;;2.10;;
26588;SDS011;14235;48.532;8.722;2022-12-29T00:51:56;2.00;;;1.90;;
26588;SDS011;14235;48.532;8.722;2022-12-29T00:54:27;1.83;;;1.58;;
26588;SDS011;14235;48.532;8.722;2022-12-29T00:56:54;1.95;;;1.85;;
26588;SDS011;14235;48.532;8.722;2022-12-29T00:59:20;1.67;;;1.58;;
26588;SDS011;14235;48.532;8.722;2022-12-29T01:01:46;3.65;;;1.70;;
26588;SDS011;14235;48.532;8.722;2022-12-29T01:04:12;3.83;;;1.92;;
26588;SDS011;14235;48.532;8.722;2022-12-29T01:06:39;1.65;;;1.52;;
26588;SDS011;14235;48.532;8.722;2022-12-29T01:09:06;3.25;;;1.33;;
26588;SDS011;14235;48.532;8.722;2022-12-29T01:11:50;1.95;;;1.55;;
26588;SDS011;14235;48.532;8.722;2022-12-29T01:14:16;2.33;;;1.63;;
26588;SDS011;14235;48.532;8.722;2022-12-29T01:16:43;2.17;;;1.30;;
26588;SDS011;14235;48.532;8.722;2022-12-29T01:19:09;1.60;;;1.50;;
26588;SDS011;14235;48.532;8.722;2022-12-29T01:21:34;2.10;;;1.30;;
26588;SDS011;14235;48.532;8.722;2022-12-29T01:24:00;1.50;;;1.40;;
26588;SDS011;14235;48.532;8.722;2022-12-29T01:26:25;3.63;;;1.67;;
26588;SDS011;14235;48.532;8.722;2022-12-29T01:28:51;2.30;;;1.50;;
26588;SDS011;14235;48.532;8.722;2022-12-29T01:31:17;2.75;;;2.15;;
26588;SDS011;14235;48.532;8.722;2022-12-29T01:33:42;2.22;;;1.67;;
26588;SDS011;14235;48.532;8.722;2022-12-29T01:36:09;3.78;;;1.70;;
26588;SDS011;14235;48.532;8.722;2022-12-29T01:38:37;2.40;;;1.30;;
26588;SDS011;14235;48.532;8.722;2022-12-29T01:41:04;3.00;;;1.23;;
26588;SDS011;14235;48.532;8.722;2022-12-29T01:46:32;1.83;;;1.42;;
26588;SDS011;14235;48.532;8.722;2022-12-29T01:51:34;2.40;;;1.90;;
26588;SDS011;14235;48.532;8.722;2022-12-29T01:54:04;1.42;;;1.20;;
26588;SDS011;14235;48.532;8.722;2022-12-29T01:56:35;1.65;;;1.55;;
26588;SDS011;14235;48.532;8.722;2022-12-29T01:59:03;3.85;;;1.58;;
26588;SDS011;14235;48.532;8.722;2022-12-29T02:01:31;1.88;;;1.58;;
26588;SDS011;14235;48.532;8.722;2022-12-29T02:03:57;2.25;;;1.67;;
26588;SDS011;14235;48.532;8.722;2022-12-29T02:06:26;1.40;;;1.30;;
26588;SDS011;14235;48.532;8.722;2022-12-29T02:08:56;2.75;;;1.88;;
26588;SDS011;14235;48.532;8.722;2022-12-29T02:11:23;6.70;;;1.70;;
26588;SDS011;14235;48.532;8.722;2022-12-29T02:13:51;2.13;;;1.40;;
26588;SDS011;14235;48.532;8.722;2022-12-29T02:16:20;1.80;;;1.40;;
26588;SDS011;14235;48.532;8.722;2022-12-29T02:19:12;3.72;;;1.40;;
26588;SDS011;14235;48.532;8.722;2022-12-29T02:21:48;2.85;;;1.30;;
26588;SDS011;14235;48.532;8.722;2022-12-29T02:30:12;1.77;;;1.10;;
26588;SDS011;14235;48.532;8.722;2022-12-29T02:36:06;3.00;;;1.45;;
26588;SDS011;14235;48.532;8.722;2022-12-29T02:41:45;2.40;;;1.15;;
26588;SDS011;14235;48.532;8.722;2022-12-29T02:44:36;2.13;;;1.00;;
26588;SDS011;14235;48.532;8.722;2022-12-29T02:52:39;2.58;;;1.15;;
26588;SDS011;14235;48.532;8.722;2022-12-29T02:55:18;2.78;;;1.00;;
26588;SDS011;14235;48.532;8.722;2022-12-29T02:57:43;1.67;;;1.25;;
26588;SDS011;14235;48.532;8.722;2022-12-29T03:00:12;1.08;;;1.08;;
26588;SDS011;14235;48.532;8.722;2022-12-29T03:02:50;1.75;;;1.08;;
26588;SDS011;14235;48.532;8.722;2022-12-29T03:11:05;1.45;;;1.40;;
26588;SDS011;14235;48.532;8.722;2022-12-29T03:16:29;1.40;;;1.30;;
26588;SDS011;14235;48.532;8.722;2022-12-29T03:19:01;2.67;;;1.30;;
26588;SDS011;14235;48.532;8.722;2022-12-29T03:21:38;2.45;;;1.20;;
26588;SDS011;14235;48.532;8.722;2022-12-29T03:24:25;2.15;;;1.27;;
26588;SDS011;14235;48.532;8.722;2022-12-29T03:26:52;2.50;;;1.15;;
26588;SDS011;14235;48.532;8.722;2022-12-29T03:29:19;2.20;;;1.30;;
26588;SDS011;14235;48.532;8.722;2022-12-29T03:31:46;3.25;;;1.48;;
26588;SDS011;14235;48.532;8.722;2022-12-29T03:34:13;1.95;;;1.20;;
26588;SDS011;14235;48.532;8.722;2022-12-29T03:36:43;2.40;;;1.50;;
26588;SDS011;14235;48.532;8.722;2022-12-29T03:39:10;1.67;;;1.58;;
26588;SDS011;14235;48.532;8.722;2022-12-29T03:41:37;1.50;;;1.23;;
26588;SDS011;14235;48.532;8.722;2022-12-29T03:44:05;2.25;;;1.25;;
26588;SDS011;14235;48.532;8.722;2022-12-29T03:46:31;1.60;;;1.50;;
26588;SDS011;14235;48.532;8.722;2022-12-29T03:48:57;1.55;;;1.30;;
26588;SDS011;14235;48.532;8.722;2022-12-29T03:51:23;1.77;;;1.50;;
26588;SDS011;14235;48.532;8.722;2022-12-29T03:53:49;2.08;;;1.27;;
26588;SDS011;14235;48.532;8.722;2022-12-29T03:56:15;2.58;;;1.35;;
26588;SDS011;14235;48.532;8.722;2022-12-29T03:58:41;2.38;;;1.42;;
26588;SDS011;14235;48.532;8.722;2022-12-29T04:01:07;1.60;;;1.50;;
26588;SDS011;14235;48.532;8.722;2022-12-29T04:03:33;2.08;;;1.45;;
26588;SDS011;14235;48.532;8.722;2022-12-29T04:05:59;1.98;;;1.27;;
26588;SDS011;14235;48.532;8.722;2022-12-29T04:08:25;2.55;;;1.33;;
26588;SDS011;14235;48.532;8.722;2022-12-29T04:10:51;1.58;;;1.30;;
26588;SDS011;14235;48.532;8.722;2022-12-29T04:13:17;1.48;;;1.30;;
26588;SDS011;14235;48.532;8.722;2022-12-29T04:15:43;1.40;;;1.30;;
26588;SDS011;14235;48.532;8.722;2022-12-29T04:18:11;2.97;;;1.33;;
26588;SDS011;14235;48.532;8.722;2022-12-29T04:20:37;1.63;;;1.52;;
26588;SDS011;14235;48.532;8.722;2022-12-29T04:23:22;1.40;;;1.30;;
26588;SDS011;14235;48.532;8.722;2022-12-29T04:25:48;1.58;;;1.48;;
26588;SDS011;14235;48.532;8.722;2022-12-29T04:28:15;1.80;;;1.70;;
26588;SDS011;14235;48.532;8.722;2022-12-29T04:30:41;1.60;;;1.50;;
26588;SDS011;14235;48.532;8.722;2022-12-29T04:33:07;2.95;;;1.50;;
26588;SDS011;14235;48.532;8.722;2022-12-29T04:35:33;1.80;;;1.67;;
26588;SDS011;14235;48.532;8.722;2022-12-29T04:37:59;2.33;;;1.83;;
26588;SDS011;14235;48.532;8.722;2022-12-29T04:40:25;1.63;;;1.52;;
26588;SDS011;14235;48.532;8.722;2022-12-29T04:42:51;1.73;;;1.63;;
26588;SDS011;14235;48.532;8.722;2022-12-29T04:45:17;1.83;;;1.70;;
26588;SDS011;14235;48.532;8.722;2022-12-29T04:47:43;2.75;;;1.75;;
26588;SDS011;14235;48.532;8.722;2022-12-29T04:50:09;1.80;;;1.70;;
26588;SDS011;14235;48.532;8.722;2022-12-29T04:52:35;2.03;;;1.80;;
26588;SDS011;14235;48.532;8.722;2022-12-29T04:55:01;1.40;;;1.30;;
26588;SDS011;14235;48.532;8.722;2022-12-29T04:57:27;1.60;;;1.50;;
26588;SDS011;14235;48.532;8.722;2022-12-29T04:59:53;2.42;;;1.73;;
26588;SDS011;14235;48.532;8.722;2022-12-29T05:02:19;1.65;;;1.55;;
26588;SDS011;14235;48.532;8.722;2022-12-29T05:04:45;1.73;;;1.60;;
26588;SDS011;14235;48.532;8.722;2022-12-29T05:07:11;2.97;;;1.75;;
26588;SDS011;14235;48.532;8.722;2022-12-29T05:09:37;1.60;;;1.50;;
26588;SDS011;14235;48.532;8.722;2022-12-29T05:12:03;3.08;;;1.90;;
26588;SDS011;14235;48.532;8.722;2022-12-29T05:14:29;2.90;;;1.42;;
26588;SDS011;14235;48.532;8.722;2022-12-29T05:16:55;1.70;;;1.60;;
26588;SDS011;14235;48.532;8.722;2022-12-29T05:19:21;1.30;;;1.20;;
26588;SDS011;14235;48.532;8.722;2022-12-29T05:21:47;3.30;;;1.48;;
26588;SDS011;14235;48.532;8.722;2022-12-29T05:24:13;4.13;;;2.15;;
26588;SDS011;14235;48.532;8.722;2022-12-29T05:26:40;2.67;;;1.48;;
26588;SDS011;14235;48.532;8.722;2022-12-29T05:29:06;2.70;;;1.42;;
26588;SDS011;14235;48.532;8.722;2022-12-29T05:31:32;2.47;;;1.70;;
26588;SDS011;14235;48.532;8.722;2022-12-29T05:33:58;2.13;;;1.40;;
26588;SDS011;14235;48.532;8.722;2022-12-29T05:36:24;1.58;;;1.42;;
26588;SDS011;14235;48.532;8.722;2022-12-29T05:38:50;5.63;;;1.77;;
26588;SDS011;14235;48.532;8.722;2022-12-29T05:41:16;1.95;;;1.40;;
26588;SDS011;14235;48.532;8.722;2022-12-29T05:43:42;2.38;;;1.55;;
26588;SDS011;14235;48.532;8.722;2022-12-29T05:46:08;3.47;;;1.40;;
26588;SDS011;14235;48.532;8.722;2022-12-29T05:48:34;3.30;;;1.92;;
26588;SDS011;14235;48.532;8.722;2022-12-29T05:51:00;1.73;;;1.30;;
26588;SDS011;14235;48.532;8.722;2022-12-29T05:53:26;1.77;;;1.58;;
26588;SDS011;14235;48.532;8.722;2022-12-29T05:55:52;2.63;;;1.52;;
26588;SDS011;14235;48.532;8.722;2022-12-29T05:58:18;1.60;;;1.50;;
26588;SDS011;14235;48.532;8.722;2022-12-29T06:00:44;2.35;;;1.75;;
26588;SDS011;14235;48.532;8.722;2022-12-29T06:03:10;2.08;;;1.60;;
26588;SDS011;14235;48.532;8.722;2022-12-29T06:05:36;4.20;;;1.75;;
26588;SDS011;14235;48.532;8.722;2022-12-29T06:08:02;2.53;;;1.80;;
26588;SDS011;14235;48.532;8.722;2022-12-29T06:10:28;2.42;;;1.80;;
26588;SDS011;14235;48.532;8.722;2022-12-29T06:12:54;2.53;;;1.90;;
26588;SDS011;14235;48.532;8.722;2022-12-29T06:15:20;2.97;;;1.85;;
26588;SDS011;14235;48.532;8.722;2022-12-29T06:17:46;1.60;;;1.48;;
26588;SDS011;14235;48.532;8.722;2022-12-29T06:20:12;3.70;;;1.65;;
26588;SDS011;14235;48.532;8.722;2022-12-29T06:22:38;1.75;;;1.65;;
26588;SDS011;14235;48.532;8.722;2022-12-29T06:25:04;3.45;;;1.67;;
26588;SDS011;14235;48.532;8.722;2022-12-29T06:27:31;3.50;;;1.77;;
26588;SDS011;14235;48.532;8.722;2022-12-29T06:29:57;2.13;;;1.80;;
26588;SDS011;14235;48.532;8.722;2022-12-29T06:32:23;1.73;;;1.52;;
26588;SDS011;14235;48.532;8.722;2022-12-29T06:34:49;2.88;;;1.58;;
26588;SDS011;14235;48.532;8.722;2022-12-29T06:37:15;2.63;;;1.70;;
26588;SDS011;14235;48.532;8.722;2022-12-29T06:39:41;5.63;;;1.98;;
26588;SDS011;14235;48.532;8.722;2022-12-29T06:42:08;1.58;;;1.48;;
26588;SDS011;14235;48.532;8.722;2022-12-29T06:44:34;1.73;;;1.63;;
26588;SDS011;14235;48.532;8.722;2022-12-29T06:47:00;2.05;;;1.45;;
26588;SDS011;14235;48.532;8.722;2022-12-29T06:49:26;1.92;;;1.75;;
26588;SDS011;14235;48.532;8.722;2022-12-29T06:51:52;1.90;;;1.70;;
26588;SDS011;14235;48.532;8.722;2022-12-29T06:54:18;1.65;;;1.55;;
26588;SDS011;14235;48.532;8.722;2022-12-29T06:56:44;3.75;;;1.63;;
26588;SDS011;14235;48.532;8.722;2022-12-29T06:59:10;1.63;;;1.33;;
26588;SDS011;14235;48.532;8.722;2022-12-29T07:01:36;6.93;;;1.80;;
26588;SDS011;14235;48.532;8.722;2022-12-29T07:04:03;1.30;;;1.30;;
26588;SDS011;14235;48.532;8.722;2022-12-29T07:06:29;2.95;;;1.58;;
26588;SDS011;14235;48.532;8.722;2022-12-29T07:08:55;2.00;;;1.60;;
26588;SDS011;14235;48.532;8.722;2022-12-29T07:11:22;2.05;;;1.70;;
26588;SDS011;14235;48.532;8.722;2022-12-29T07:13:48;2.45;;;1.80;;
26588;SDS011;14235;48.532;8.722;2022-12-29T07:16:14;2.05;;;1.55;;
26588;SDS011;14235;48.532;8.722;2022-12-29T07:18:40;1.70;;;1.60;;
26588;SDS011;14235;48.532;8.722;2022-12-29T07:21:06;1.90;;;1.80;;
26588;SDS011;14235;48.532;8.722;2022-12-29T07:23:32;1.60;;;1.50;;
26588;SDS011;14235;48.532;8.722;2022-12-29T07:26:08;2.97;;;1.75;;
26588;SDS011;14235;48.532;8.722;2022-12-29T07:28:35;3.55;;;1.50;;
26588;SDS011;14235;48.532;8.722;2022-12-29T07:31:03;1.60;;;1.50;;
26588;SDS011;14235;48.532;8.722;2022-12-29T07:33:29;2.28;;;1.52;;
26588;SDS011;14235;48.532;8.722;2022-12-29T07:35:55;2.97;;;1.60;;
26588;SDS011;14235;48.532;8.722;2022-12-29T07:38:21;2.45;;;1.50;;
26588;SDS011;14235;48.532;8.722;2022-12-29T07:40:47;2.53;;;1.60;;
26588;SDS011;14235;48.532;8.722;2022-12-29T07:43:13;2.33;;;1.33;;
26588;SDS011;14235;48.532;8.722;2022-12-29T07:45:39;1.33;;;1.23;;
26588;SDS011;14235;48.532;8.722;2022-12-29T07:48:06;2.80;;;1.30;;
26588;SDS011;14235;48.532;8.722;2022-12-29T07:50:35;1.85;;;1.70;;
26588;SDS011;14235;48.532;8.722;2022-12-29T07:53:01;2.53;;;1.52;;
26588;SDS011;14235;48.532;8.722;2022-12-29T07:55:27;4.07;;;1.65;;
26588;SDS011;14235;48.532;8.722;2022-12-29T07:57:53;1.95;;;1.40;;
26588;SDS011;14235;48.532;8.722;2022-12-29T08:00:20;1.60;;;1.50;;
26588;SDS011;14235;48.532;8.722;2022-12-29T08:02:46;1.50;;;1.40;;
26588;SDS011;14235;48.532;8.722;2022-12-29T08:05:12;1.42;;;1.27;;
26588;SDS011;14235;48.532;8.722;2022-12-29T08:07:38;1.45;;;1.35;;
26588;SDS011;14235;48.532;8.722;2022-12-29T08:10:04;1.00;;;0.98;;
26588;SDS011;14235;48.532;8.722;2022-12-29T08:12:30;2.40;;;1.40;;
26588;SDS011;14235;48.532;8.722;2022-12-29T08:14:56;1.40;;;1.30;;
26588;SDS011;14235;48.532;8.722;2022-12-29T08:17:22;3.88;;;1.33;;
26588;SDS011;14235;48.532;8.722;2022-12-29T08:19:48;2.75;;;1.20;;
26588;SDS011;14235;48.532;8.722;2022-12-29T08:22:14;2.15;;;1.50;;
26588;SDS011;14235;48.532;8.722;2022-12-29T08:24:40;4.45;;;1.90;;
26588;SDS011;14235;48.532;8.722;2022-12-29T08:27:06;1.83;;;1.35;;
26588;SDS011;14235;48.532;8.722;2022-12-29T08:29:32;2.28;;;1.23;;
26588;SDS011;14235;48.532;8.722;2022-12-29T08:31:58;2.53;;;1.35;;
26588;SDS011;14235;48.532;8.722;2022-12-29T08:34:24;1.67;;;1.48;;
26588;SDS011;14235;48.532;8.722;2022-12-29T08:36:50;2.35;;;1.70;;
26588;SDS011;14235;48.532;8.722;2022-12-29T08:39:16;1.52;;;1.42;;
26588;SDS011;14235;48.532;8.722;2022-12-29T08:41:42;2.25;;;1.45;;
26588;SDS011;14235;48.532;8.722;2022-12-29T08:44:08;1.23;;;1.20;;
26588;SDS011;14235;48.532;8.722;2022-12-29T08:46:34;1.33;;;1.23;;
26588;SDS011;14235;48.532;8.722;2022-12-29T08:49:00;1.65;;;1.48;;
26588;SDS011;14235;48.532;8.722;2022-12-29T08:51:26;3.22;;;1.35;;
26588;SDS011;14235;48.532;8.722;2022-12-29T08:53:52;2.25;;;1.40;;
26588;SDS011;14235;48.532;8.722;2022-12-29T08:56:18;1.38;;;1.20;;
26588;SDS011;14235;48.532;8.722;2022-12-29T08:58:44;1.40;;;1.20;;
26588;SDS011;14235;48.532;8.722;2022-12-29T09:01:10;2.25;;;1.30;;
26588;SDS011;14235;48.532;8.722;2022-12-29T09:03:36;1.48;;;1.30;;
26588;SDS011;14235;48.532;8.722;2022-12-29T09:06:02;1.55;;;1.45;;
26588;SDS011;14235;48.532;8.722;2022-12-29T09:08:28;2.25;;;1.38;;
26588;SDS011;14235;48.532;8.722;2022-12-29T09:10:54;2.55;;;1.40;;
26588;SDS011;14235;48.532;8.722;2022-12-29T09:13:20;2.65;;;1.77;;
26588;SDS011;14235;48.532;8.722;2022-12-29T09:15:46;1.52;;;1.40;;
26588;SDS011;14235;48.532;8.722;2022-12-29T09:18:12;1.60;;;1.30;;
26588;SDS011;14235;48.532;8.722;2022-12-29T09:20:38;2.00;;;1.33;;
26588;SDS011;14235;48.532;8.722;2022-12-29T09:23:04;2.97;;;1.38;;
26588;SDS011;14235;48.532;8.722;2022-12-29T09:25:33;2.75;;;1.40;;
26588;SDS011;14235;48.532;8.722;2022-12-29T09:27:59;2.05;;;1.45;;
26588;SDS011;14235;48.532;8.722;2022-12-29T09:30:29;2.58;;;1.48;;
26588;SDS011;14235;48.532;8.722;2022-12-29T09:32:55;3.30;;;1.67;;
26588;SDS011;14235;48.532;8.722;2022-12-29T09:35:21;3.75;;;1.88;;
26588;SDS011;14235;48.532;8.722;2022-12-29T09:37:47;2.20;;;1.80;;
26588;SDS011;14235;48.532;8.722;2022-12-29T09:40:27;2.05;;;1.50;;
26588;SDS011;14235;48.532;8.722;2022-12-29T09:45:34;2.22;;;1.70;;
26588;SDS011;14235;48.532;8.722;2022-12-29T09:48:03;2.92;;;1.70;;
26588;SDS011;14235;48.532;8.722;2022-12-29T09:53:00;1.77;;;1.50;;
26588;SDS011;14235;48.532;8.722;2022-12-29T09:55:47;1.65;;;1.52;;
26588;SDS011;14235;48.532;8.722;2022-12-29T10:01:05;1.88;;;1.50;;
26588;SDS011;14235;48.532;8.722;2022-12-29T10:06:25;2.22;;;2.08;;
26588;SDS011;14235;48.532;8.722;2022-12-29T10:09:02;6.57;;;2.40;;
26588;SDS011;14235;48.532;8.722;2022-12-29T10:17:28;2.72;;;1.95;;
26588;SDS011;14235;48.532;8.722;2022-12-29T10:25:46;1.70;;;1.23;;
26588;SDS011;14235;48.532;8.722;2022-12-29T10:28:17;2.00;;;1.60;;
26588;SDS011;14235;48.532;8.722;2022-12-29T10:30:47;3.38;;;1.45;;
26588;SDS011;14235;48.532;8.722;2022-12-29T10:33:21;2.25;;;1.48;;
26588;SDS011;14235;48.532;8.722;2022-12-29T10:35:59;1.75;;;1.65;;
26588;SDS011;14235;48.532;8.722;2022-12-29T10:38:44;2.45;;;1.60;;
26588;SDS011;14235;48.532;8.722;2022-12-29T10:41:16;2.03;;;1.85;;
26588;SDS011;14235;48.532;8.722;2022-12-29T10:43:45;1.55;;;1.45;;
26588;SDS011;14235;48.532;8.722;2022-12-29T10:46:14;2.65;;;1.85;;
26588;SDS011;14235;48.532;8.722;2022-12-29T10:48:43;1.92;;;1.55;;
26588;SDS011;14235;48.532;8.722;2022-12-29T10:51:11;1.98;;;1.63;;
26588;SDS011;14235;48.532;8.722;2022-12-29T10:53:58;3.75;;;1.73;;
26588;SDS011;14235;48.532;8.722;2022-12-29T10:56:30;2.38;;;1.38;;
26588;SDS011;14235;48.532;8.722;2022-12-29T10:59:20;2.28;;;1.60;;
26588;SDS011;14235;48.532;8.722;2022-12-29T11:07:30;3.60;;;1.80;;
26588;SDS011;14235;48.532;8.722;2022-12-29T11:12:41;2.55;;;1.60;;
26588;SDS011;14235;48.532;8.722;2022-12-29T11:15:19;2.03;;;1.83;;
26588;SDS011;14235;48.532;8.722;2022-12-29T11:17:47;2.08;;;1.63;;
26588;SDS011;14235;48.532;8.722;2022-12-29T11:22:45;2.30;;;1.17;;
26588;SDS011;14235;48.532;8.722;2022-12-29T11:25:12;2.42;;;1.55;;
26588;SDS011;14235;48.532;8.722;2022-12-29T11:27:38;2.65;;;1.55;;
26588;SDS011;14235;48.532;8.722;2022-12-29T11:30:11;1.30;;;1.20;;
26588;SDS011;14235;48.532;8.722;2022-12-29T11:32:51;3.30;;;1.50;;
26588;SDS011;14235;48.532;8.722;2022-12-29T11:35:31;1.52;;;1.42;;
26588;SDS011;14235;48.532;8.722;2022-12-29T11:37:57;1.65;;;1.60;;
26588;SDS011;14235;48.532;8.722;2022-12-29T11:40:24;1.92;;;1.70;;
26588;SDS011;14235;48.532;8.722;2022-12-29T11:42:54;2.92;;;1.85;;
26588;SDS011;14235;48.532;8.722;2022-12-29T11:45:21;1.90;;;1.65;;
26588;SDS011;14235;48.532;8.722;2022-12-29T11:47:49;2.08;;;1.88;;
26588;SDS011;14235;48.532;8.722;2022-12-29T11:50:19;1.70;;;1.60;;
26588;SDS011;14235;48.532;8.722;2022-12-29T11:52:46;2.58;;;1.75;;
26588;SDS011;14235;48.532;8.722;2022-12-29T11:55:24;1.90;;;1.73;;
26588;SDS011;14235;48.532;8.722;2022-12-29T11:57:51;2.28;;;2.08;;
26588;SDS011;14235;48.532;8.722;2022-12-29T12:00:21;2.40;;;1.80;;
26588;SDS011;14235;48.532;8.722;2022-12-29T12:08:27;1.85;;;1.75;;
26588;SDS011;14235;48.532;8.722;2022-12-29T12:11:03;2.45;;;1.70;;
26588;SDS011;14235;48.532;8.722;2022-12-29T12:13:34;2.53;;;2.03;;
26588;SDS011;14235;48.532;8.722;2022-12-29T12:16:16;2.70;;;1.77;;
26588;SDS011;14235;48.532;8.722;2022-12-29T12:18:52;5.55;;;2.55;;
26588;SDS011;14235;48.532;8.722;2022-12-29T12:21:27;1.75;;;1.65;;
26588;SDS011;14235;48.532;8.722;2022-12-29T12:24:10;2.80;;;1.52;;
26588;SDS011;14235;48.532;8.722;2022-12-29T12:26:49;1.83;;;1.60;;
26588;SDS011;14235;48.532;8.722;2022-12-29T12:29:18;3.00;;;1.60;;
26588;SDS011;14235;48.532;8.722;2022-12-29T12:31:51;2.92;;;1.95;;
26588;SDS011;14235;48.532;8.722;2022-12-29T12:34:33;2.05;;;1.63;;
26588;SDS011;14235;48.532;8.722;2022-12-29T12:47:52;1.90;;;1.67;;
26588;SDS011;14235;48.532;8.722;2022-12-29T12:50:27;1.67;;;1.58;;
26588;SDS011;14235;48.532;8.722;2022-12-29T12:55:30;3.35;;;1.60;;
26588;SDS011;14235;48.532;8.722;2022-12-29T13:03:31;1.85;;;1.60;;
26588;SDS011;14235;48.532;8.722;2022-12-29T13:06:06;2.22;;;1.80;;
26588;SDS011;14235;48.532;8.722;2022-12-29T13:11:07;2.33;;;1.90;;
26588;SDS011;14235;48.532;8.722;2022-12-29T13:19:25;2.95;;;2.00;;
26588;SDS011;14235;48.532;8.722;2022-12-29T13:24:35;2.20;;;1.80;;
26588;SDS011;14235;48.532;8.722;2022-12-29T13:37:20;2.00;;;1.90;;
26588;SDS011;14235;48.532;8.722;2022-12-29T13:39:49;1.98;;;1.50;;
26588;SDS011;14235;48.532;8.722;2022-12-29T13:42:17;3.72;;;1.90;;
26588;SDS011;14235;48.532;8.722;2022-12-29T13:44:46;1.80;;;1.70;;
26588;SDS011;14235;48.532;8.722;2022-12-29T13:49:40;1.73;;;1.63;;
26588;SDS011;14235;48.532;8.722;2022-12-29T13:52:18;2.80;;;1.60;;
26588;SDS011;14235;48.532;8.722;2022-12-29T13:57:38;2.53;;;1.70;;
26588;SDS011;14235;48.532;8.722;2022-12-29T14:00:12;2.90;;;1.58;;
26588;SDS011;14235;48.532;8.722;2022-12-29T14:07:43;2.83;;;1.80;;
26588;SDS011;14235;48.532;8.722;2022-12-29T14:12:51;2.83;;;1.80;;
26588;SDS011;14235;48.532;8.722;2022-12-29T14:15:25;1.83;;;1.70;;
26588;SDS011;14235;48.532;8.722;2022-12-29T14:20:36;1.65;;;1.45;;
26588;SDS011;14235;48.532;8.722;2022-12-29T14:28:38;2.50;;;2.08;;
26588;SDS011;14235;48.532;8.722;2022-12-29T14:31:32;2.05;;;1.80;;
26588;SDS011;14235;48.532;8.722;2022-12-29T14:36:35;3.13;;;1.92;;
26588;SDS011;14235;48.532;8.722;2022-12-29T14:39:01;2.63;;;1.77;;
26588;SDS011;14235;48.532;8.722;2022-12-29T14:41:40;2.88;;;1.63;;
26588;SDS011;14235;48.532;8.722;2022-12-29T14:46:42;2.45;;;1.80;;
26588;SDS011;14235;48.532;8.722;2022-12-29T14:49:09;3.58;;;1.80;;
26588;SDS011;14235;48.532;8.722;2022-12-29T14:51:40;2.28;;;1.50;;
26588;SDS011;14235;48.532;8.722;2022-12-29T14:56:50;1.65;;;1.55;;
26588;SDS011;14235;48.532;8.722;2022-12-29T14:59:16;3.67;;;1.98;;
26588;SDS011;14235;48.532;8.722;2022-12-29T15:01:43;3.05;;;1.92;;
26588;SDS011;14235;48.532;8.722;2022-12-29T15:04:15;2.25;;;2.05;;
26588;SDS011;14235;48.532;8.722;2022-12-29T15:06:42;3.10;;;2.00;;
26588;SDS011;14235;48.532;8.722;2022-12-29T15:09:19;1.95;;;1.85;;
26588;SDS011;14235;48.532;8.722;2022-12-29T15:11:53;2.63;;;2.47;;
26588;SDS011;14235;48.532;8.722;2022-12-29T15:16:54;2.95;;;2.25;;
26588;SDS011;14235;48.532;8.722;2022-12-29T15:19:21;3.28;;;1.90;;
26588;SDS011;14235;48.532;8.722;2022-12-29T15:21:47;4.82;;;2.10;;
26588;SDS011;14235;48.532;8.722;2022-12-29T15:24:13;1.85;;;1.63;;
26588;SDS011;14235;48.532;8.722;2022-12-29T15:26:40;1.98;;;1.70;;
26588;SDS011;14235;48.532;8.722;2022-12-29T15:31:51;3.28;;;2.35;;
26588;SDS011;14235;48.532;8.722;2022-12-29T15:34:19;2.17;;;1.80;;
26588;SDS011;14235;48.532;8.722;2022-12-29T15:36:46;2.88;;;1.80;;
26588;SDS011;14235;48.532;8.722;2022-12-29T15:39:28;2.47;;;2.28;;
26588;SDS011;14235;48.532;8.722;2022-12-29T15:41:55;2.72;;;1.88;;
26588;SDS011;14235;48.532;8.722;2022-12-29T15:44:38;1.80;;;1.70;;
26588;SDS011;14235;48.532;8.722;2022-12-29T15:47:06;2.03;;;1.77;;
26588;SDS011;14235;48.532;8.722;2022-12-29T15:49:32;1.90;;;1.80;;
26588;SDS011;14235;48.532;8.722;2022-12-29T15:51:58;3.38;;;2.40;;
26588;SDS011;14235;48.532;8.722;2022-12-29T15:54:25;4.82;;;1.90;;
26588;SDS011;14235;48.532;8.722;2022-12-29T15:56:51;2.78;;;2.20;;
26588;SDS011;14235;48.532;8.722;2022-12-29T16:01:49;2.67;;;2.03;;
26588;SDS011;14235;48.532;8.722;2022-12-29T16:04:16;2.58;;;2.08;;
26588;SDS011;14235;48.532;8.722;2022-12-29T16:06:54;3.72;;;2.22;;
26588;SDS011;14235;48.532;8.722;2022-12-29T16:09:33;4.45;;;1.95;;
26588;SDS011;14235;48.532;8.722;2022-12-29T16:12:01;2.72;;;2.20;;
26588;SDS011;14235;48.532;8.722;2022-12-29T16:14:30;2.47;;;2.28;;
26588;SDS011;14235;48.532;8.722;2022-12-29T16:16:58;2.45;;;1.88;;
26588;SDS011;14235;48.532;8.722;2022-12-29T16:19:27;3.40;;;2.00;;
26588;SDS011;14235;48.532;8.722;2022-12-29T16:21:54;3.33;;;2.05;;
26588;SDS011;14235;48.532;8.722;2022-12-29T16:24:23;4.65;;;2.58;;
26588;SDS011;14235;48.532;8.722;2022-12-29T16:26:51;2.38;;;2.17;;
26588;SDS011;14235;48.532;8.722;2022-12-29T16:29:20;3.13;;;1.95;;
26588;SDS011;14235;48.532;8.722;2022-12-29T16:31:54;2.95;;;1.98;;
26588;SDS011;14235;48.532;8.722;2022-12-29T16:34:27;3.55;;;2.58;;
26588;SDS011;14235;48.532;8.722;2022-12-29T16:37:00;3.35;;;1.95;;
26588;SDS011;14235;48.532;8.722;2022-12-29T16:39:37;2.13;;;1.83;;
26588;SDS011;14235;48.532;8.722;2022-12-29T16:44:48;2.55;;;2.13;;
26588;SDS011;14235;48.532;8.722;2022-12-29T16:47:18;5.00;;;2.22;;
26588;SDS011;14235;48.532;8.722;2022-12-29T16:49:47;2.50;;;2.30;;
26588;SDS011;14235;48.532;8.722;2022-12-29T16:52:20;8.18;;;5.50;;
26588;SDS011;14235;48.532;8.722;2022-12-29T16:54:48;11.07;;;7.70;;
26588;SDS011;14235;48.532;8.722;2022-12-29T16:57:20;7.22;;;5.82;;
26588;SDS011;14235;48.532;8.722;2022-12-29T16:59:46;5.43;;;3.90;;
26588;SDS011;14235;48.532;8.722;2022-12-29T17:02:16;3.63;;;2.75;;
26588;SDS011;14235;48.532;8.722;2022-12-29T17:04:44;5.22;;;3.45;;
26588;SDS011;14235;48.532;8.722;2022-12-29T17:07:20;2.60;;;2.20;;
26588;SDS011;14235;48.532;8.722;2022-12-29T17:09:46;4.18;;;2.60;;
26588;SDS011;14235;48.532;8.722;2022-12-29T17:12:16;5.70;;;2.67;;
26588;SDS011;14235;48.532;8.722;2022-12-29T17:14:45;3.88;;;2.10;;
26588;SDS011;14235;48.532;8.722;2022-12-29T17:17:17;3.80;;;2.13;;
26588;SDS011;14235;48.532;8.722;2022-12-29T17:19:54;5.93;;;2.10;;
26588;SDS011;14235;48.532;8.722;2022-12-29T17:22:26;2.38;;;2.00;;
26588;SDS011;14235;48.532;8.722;2022-12-29T17:24:53;2.67;;;1.98;;
26588;SDS011;14235;48.532;8.722;2022-12-29T17:27:24;2.45;;;2.17;;
26588;SDS011;14235;48.532;8.722;2022-12-29T17:29:50;5.00;;;2.83;;